Terminal Aerodrome Forecast
Issued by NWS

Current Version | Previous Version | Text Only | Print | Product List | Glossary Off
Versions: 1 2 3 4 5 6 7 8 9 10 11 12 13 14 15 16 17 18 19 20 21

263
FTUS41 KPBZ 131730
TAFHLG
TAF
KHLG 131730Z 1318/1418 33010G17KT P6SM SCT030
      TEMPO 1318/1320 -SHSN BKN030
     FM132300 33008KT P6SM BKN050
     FM140300 33005KT P6SM SCT035=

USA.gov is the U.S. government's official web portal to all federal, state and local government web resources and services.